Moyer Aviation Incorporated

Pocono Mountains Airport

188 Airport Drive. Tobyhanna, PA 18466 

P: 570-839-7161
800-321-5890
F: 570-839-7162

Weather

Weather

Pocono Weather

KMPO 170153Z AUTO 29022G30KT 10SM -RA FEW008 BKN021 OVC033 12/11 A2971 RMK AO2 PK WND 29030/0153 RAB0055 SLP054 P0002 T01220111

KMPO 170151Z AUTO 29016G25KT 10SM -RA FEW008 BKN021 OVC028 12/11 A2971 RMK AO2 RAB0055 P0002

KMPO 170140Z AUTO 29012G17KT 10SM -RA FEW009 BKN013 OVC030 12/12 A2971 RMK AO2 RAB0055 P0001 T01220117

KMPO 170133Z AUTO 29012KT 10SM -RA BKN013 BKN024 OVC033 12/12 A2971 RMK AO2 RAB0055 P0001 T01220117

KMPO 170105Z AUTO 29013G24KT 10SM -RA FEW018 BKN038 OVC060 13/11 A2970 RMK AO2 RAB0055 P0000 T01280111

Allentown Weather

KABE 170151Z 29014G24KT 10SM SCT090 17/10 A2971 RMK AO2 PK WND 32030/0113 SLP060 T01670100

Wilkes-Barre Weather

KAVP 170124Z 29006KT 10SM FEW024 OVC033 14/12 A2974 RMK AO2 RAE18 PRESRR P0000 T01390122


* required field

Contact Us